createdAt,value
2023-01-03T00:01:57.606Z,98061.75
2023-01-03T00:04:24.104Z,98069.47
2023-01-03T00:06:52.417Z,98066.97
2023-01-03T00:09:20.062Z,98067.88
2023-01-03T00:12:05.782Z,98074.00
2023-01-03T00:14:33.938Z,98073.91
2023-01-03T00:17:01.617Z,98075.66
2023-01-03T00:19:28.988Z,98083.97
2023-01-03T00:21:55.897Z,98088.53
2023-01-03T00:24:22.666Z,98082.41
2023-01-03T00:26:49.290Z,98080.81
2023-01-03T00:29:15.985Z,98082.53
2023-01-03T00:31:42.979Z,98088.47
2023-01-03T00:34:09.982Z,98088.41
2023-01-03T00:36:37.935Z,98097.91
2023-01-03T00:39:04.459Z,98091.00
2023-01-03T00:41:30.922Z,98092.63
2023-01-03T00:43:57.903Z,98093.28
2023-01-03T00:46:24.472Z,98100.94
2023-01-03T00:48:50.981Z,98099.25
2023-01-03T00:51:21.974Z,98106.16
2023-01-03T00:53:49.179Z,98108.66
2023-01-03T00:56:17.004Z,98111.25
2023-01-03T00:58:43.705Z,98112.03
2023-01-03T01:01:11.557Z,98114.72
2023-01-03T01:03:39.311Z,98115.59
2023-01-03T01:06:22.151Z,98115.66
2023-01-03T01:08:49.743Z,98119.88
2023-01-03T01:11:16.135Z,98119.88
2023-01-03T01:13:43.547Z,98123.31
2023-01-03T01:16:17.321Z,98122.16
2023-01-03T01:18:44.637Z,98123.72
2023-01-03T01:21:15.578Z,98126.13
2023-01-03T01:23:42.137Z,98124.19
2023-01-03T01:26:10.919Z,98125.00
2023-01-03T01:28:37.574Z,98131.91
2023-01-03T01:31:04.696Z,98122.28
2023-01-03T01:33:32.463Z,98123.91
2023-01-03T01:35:59.048Z,98135.09
2023-01-03T01:38:25.488Z,98144.50
2023-01-03T01:40:51.849Z,98144.41
2023-01-03T01:43:38.741Z,98147.72
2023-01-03T01:46:28.096Z,98143.88
2023-01-03T01:48:56.417Z,98160.28
2023-01-03T01:51:24.035Z,98155.94
2023-01-03T01:53:52.875Z,98157.75
2023-01-03T01:56:21.828Z,98159.25
2023-01-03T01:58:50.356Z,98159.25
2023-01-03T02:01:18.647Z,98158.28
2023-01-03T02:03:47.079Z,98152.88
2023-01-03T02:06:15.404Z,98158.88
2023-01-03T02:08:41.840Z,98158.66
2023-01-03T02:11:27.067Z,98153.94
2023-01-03T02:14:12.269Z,98160.69
2023-01-03T02:16:57.483Z,98160.50
2023-01-03T02:19:36.022Z,98159.34
2023-01-03T02:22:11.699Z,98158.19
2023-01-03T02:25:01.201Z,98164.94
2023-01-03T02:27:30.352Z,98160.47
2023-01-03T02:29:59.784Z,98160.22
2023-01-03T02:32:39.090Z,98165.28
2023-01-03T02:35:05.521Z,98170.38
2023-01-03T02:37:37.225Z,98165.00
2023-01-03T02:40:25.307Z,98160.50
2023-01-03T02:42:57.837Z,98157.94
2023-01-03T02:45:30.272Z,98156.97
2023-01-03T02:48:03.759Z,98149.16
2023-01-03T02:50:31.579Z,98154.34
2023-01-03T02:53:02.708Z,98158.78
2023-01-03T02:55:30.968Z,98157.06
2023-01-03T02:58:05.301Z,98163.25
2023-01-03T03:00:33.572Z,98161.59
2023-01-03T03:03:02.256Z,98167.75
2023-01-03T03:05:32.291Z,98179.13
2023-01-03T03:07:58.761Z,98178.28
2023-01-03T03:10:58.156Z,98178.38
2023-01-03T03:13:29.060Z,98177.59
2023-01-03T03:15:59.147Z,98175.81
2023-01-03T03:18:33.706Z,98188.00
2023-01-03T03:21:21.118Z,98178.03
2023-01-03T03:24:08.208Z,98176.34
2023-01-03T03:26:39.081Z,98185.06
2023-01-03T03:29:08.677Z,98184.22
2023-01-03T03:31:37.551Z,98186.69
2023-01-03T03:34:13.348Z,98196.16
2023-01-03T03:36:58.520Z,98198.78
2023-01-03T03:39:44.252Z,98191.47
2023-01-03T03:42:46.747Z,98199.94
2023-01-03T03:45:18.494Z,98200.56
2023-01-03T03:47:51.190Z,98192.59
2023-01-03T03:50:17.538Z,98200.38
2023-01-03T03:52:46.327Z,98194.31
2023-01-03T03:55:17.936Z,98196.13
2023-01-03T03:57:52.847Z,98190.88
2023-01-03T04:00:22.701Z,98188.31
2023-01-03T04:02:49.683Z,98193.56
2023-01-03T04:05:18.452Z,98191.84
2023-01-03T04:07:44.897Z,98199.78
2023-01-03T04:10:11.559Z,98201.53
2023-01-03T04:12:38.140Z,98211.00
2023-01-03T04:15:06.909Z,98202.19
2023-01-03T04:17:33.501Z,98202.25
2023-01-03T04:19:59.878Z,98210.25
2023-01-03T04:22:26.257Z,98196.25
2023-01-03T04:24:52.678Z,98194.47
2023-01-03T04:27:19.123Z,98199.53
2023-01-03T04:29:45.539Z,98198.75
2023-01-03T04:32:12.001Z,98198.81
2023-01-03T04:34:38.469Z,98217.22
2023-01-03T04:37:04.914Z,98211.28
2023-01-03T04:39:31.316Z,98208.84
2023-01-03T04:41:57.767Z,98211.59
2023-01-03T04:44:24.150Z,98213.47
2023-01-03T04:46:52.976Z,98216.06
2023-01-03T04:49:20.425Z,98215.34
2023-01-03T04:51:46.820Z,98211.13
2023-01-03T04:54:13.224Z,98206.06
2023-01-03T04:56:39.702Z,98214.97
2023-01-03T04:59:06.100Z,98222.84
2023-01-03T05:01:32.684Z,98220.28
2023-01-03T05:04:00.373Z,98221.19
2023-01-03T05:06:27.400Z,98222.97
2023-01-03T05:08:53.977Z,98223.88
2023-01-03T05:11:20.534Z,98233.56
2023-01-03T05:13:46.892Z,98228.44
2023-01-03T05:16:14.508Z,98234.47
2023-01-03T05:18:42.288Z,98231.09
2023-01-03T05:21:34.293Z,98228.56
2023-01-03T05:24:19.333Z,98230.31
2023-01-03T05:26:46.063Z,98237.31
2023-01-03T05:29:13.397Z,98240.88
2023-01-03T05:31:40.464Z,98246.31
2023-01-03T05:34:06.967Z,98248.19
2023-01-03T05:36:33.368Z,98249.13
2023-01-03T05:38:59.895Z,98258.84
2023-01-03T05:41:44.648Z,98260.69
2023-01-03T05:44:11.105Z,98266.94
2023-01-03T05:46:37.602Z,98271.44
2023-01-03T05:49:04.087Z,98268.00
2023-01-03T05:51:30.679Z,98273.22
2023-01-03T05:53:57.171Z,98268.97
2023-01-03T05:56:23.593Z,98264.72
2023-01-03T05:58:50.047Z,98264.88
2023-01-03T06:01:16.663Z,98264.97
2023-01-03T06:03:44.332Z,98261.56
2023-01-03T06:06:11.122Z,98263.22
2023-01-03T06:08:37.805Z,98270.13
2023-01-03T06:11:07.674Z,98273.56
2023-01-03T06:13:34.417Z,98266.59
2023-01-03T06:16:26.291Z,98282.38
2023-01-03T06:18:52.702Z,98280.72
2023-01-03T06:21:19.147Z,98287.72
2023-01-03T06:23:47.492Z,98284.31
2023-01-03T06:26:14.911Z,98280.97
2023-01-03T06:28:41.401Z,98282.00
2023-01-03T06:31:07.876Z,98278.53
2023-01-03T06:33:34.354Z,98286.38
2023-01-03T06:36:04.863Z,98285.63
2023-01-03T06:38:31.532Z,98284.84
2023-01-03T06:40:57.904Z,98284.84
2023-01-03T06:43:24.327Z,98285.84
2023-01-03T06:46:09.281Z,98286.75
2023-01-03T06:48:54.448Z,98280.69
2023-01-03T06:51:40.354Z,98273.72
2023-01-03T06:54:08.075Z,98271.41
2023-01-03T06:56:34.547Z,98272.13
2023-01-03T06:59:00.969Z,98277.78
2023-01-03T07:01:27.526Z,98278.75
2023-01-03T07:03:53.982Z,98276.78
2023-01-03T07:06:20.403Z,98284.91
2023-01-03T07:08:48.670Z,98286.91
2023-01-03T07:11:15.197Z,98291.44
2023-01-03T07:13:59.905Z,98298.50
2023-01-03T07:16:28.103Z,98295.19
2023-01-03T07:18:55.769Z,98311.03
2023-01-03T07:21:25.673Z,98309.47
2023-01-03T07:23:52.586Z,98302.53
2023-01-03T07:26:19.099Z,98307.72
2023-01-03T07:28:45.511Z,98319.81
2023-01-03T07:31:12.162Z,98321.47
2023-01-03T07:33:39.304Z,98317.91
2023-01-03T07:36:11.527Z,98324.06
2023-01-03T07:38:38.785Z,98323.00
2023-01-03T07:41:05.699Z,98321.25
2023-01-03T07:43:37.842Z,98323.00
2023-01-03T07:46:07.561Z,98334.31
2023-01-03T07:48:34.603Z,98331.75
2023-01-03T07:51:01.171Z,98339.50
2023-01-03T07:53:28.061Z,98331.72
2023-01-03T07:55:54.792Z,98335.09
2023-01-03T07:58:21.193Z,98337.66
2023-01-03T08:00:47.556Z,98347.22
2023-01-03T08:03:15.639Z,98341.88
2023-01-03T08:05:42.116Z,98353.09
2023-01-03T08:08:09.166Z,98352.91
2023-01-03T08:10:54.137Z,98343.22
2023-01-03T08:13:20.637Z,98354.41
2023-01-03T08:15:48.302Z,98347.28
2023-01-03T08:18:15.978Z,98348.00
2023-01-03T08:20:42.822Z,98348.75
2023-01-03T08:23:09.365Z,98349.47
2023-01-03T08:25:35.797Z,98355.44
2023-01-03T08:28:02.890Z,98358.91
2023-01-03T08:30:29.570Z,98363.25
2023-01-03T08:32:56.633Z,98365.88
2023-01-03T08:35:25.852Z,98358.09
2023-01-03T08:37:54.251Z,98358.16
2023-01-03T08:40:21.122Z,98359.69
2023-01-03T08:42:47.876Z,98362.81
2023-01-03T08:45:17.641Z,98360.59
2023-01-03T08:47:45.246Z,98368.06
2023-01-03T08:50:12.202Z,98366.81
2023-01-03T08:52:38.608Z,98371.03
2023-01-03T08:55:05.713Z,98369.88
2023-01-03T08:57:32.141Z,98370.44
2023-01-03T08:59:58.571Z,98369.28
2023-01-03T09:02:25.160Z,98377.75
2023-01-03T09:04:51.741Z,98383.69
2023-01-03T09:07:18.288Z,98383.59
2023-01-03T09:09:44.821Z,98384.31
2023-01-03T09:12:11.526Z,98390.22
2023-01-03T09:14:37.974Z,98394.44
2023-01-03T09:17:04.431Z,98399.00
2023-01-03T09:19:31.177Z,98399.91
2023-01-03T09:21:57.794Z,98403.16
2023-01-03T09:24:24.306Z,98398.41
2023-01-03T09:26:54.526Z,98411.63
2023-01-03T09:29:21.539Z,98415.97
2023-01-03T09:31:48.146Z,98423.78
2023-01-03T09:34:14.768Z,98427.22
2023-01-03T09:36:41.368Z,98430.75
2023-01-03T09:39:07.911Z,98429.78
2023-01-03T09:41:34.653Z,98426.13
2023-01-03T09:44:07.038Z,98426.81
2023-01-03T09:46:35.480Z,98415.28
2023-01-03T09:49:03.985Z,98423.09
2023-01-03T09:51:50.183Z,98416.88
2023-01-03T09:54:41.161Z,98418.53
2023-01-03T09:57:38.415Z,98408.69
2023-01-03T10:00:29.286Z,98407.84
2023-01-03T10:03:21.934Z,98408.81
2023-01-03T10:05:54.437Z,98404.25
2023-01-03T10:08:26.812Z,98395.50
2023-01-03T10:11:26.432Z,98387.47
2023-01-03T10:13:58.552Z,98397.09
2023-01-03T10:16:34.019Z,98394.09
2023-01-03T10:19:09.571Z,98396.94
2023-01-03T10:21:50.766Z,98392.78
2023-01-03T10:24:20.758Z,98398.50
2023-01-03T10:26:51.677Z,98399.00
2023-01-03T10:29:19.066Z,98397.06
2023-01-03T10:32:09.266Z,98393.34
2023-01-03T10:34:38.734Z,98395.41
2023-01-03T10:37:19.372Z,98395.81
2023-01-03T10:39:45.897Z,98392.63
2023-01-03T10:42:19.053Z,98392.56
2023-01-03T10:45:13.966Z,98393.28
2023-01-03T10:47:40.976Z,98393.88
2023-01-03T10:50:20.346Z,98386.84
2023-01-03T10:52:49.423Z,98382.38
2023-01-03T10:55:18.641Z,98382.66
2023-01-03T10:57:58.202Z,98384.63
2023-01-03T11:00:36.576Z,98390.81
2023-01-03T11:03:09.790Z,98387.13
2023-01-03T11:05:36.997Z,98379.81
2023-01-03T11:08:05.968Z,98378.47
2023-01-03T11:10:58.591Z,98378.75
2023-01-03T11:13:30.403Z,98375.03
2023-01-03T11:16:03.349Z,98372.66
2023-01-03T11:18:31.339Z,98374.06
2023-01-03T11:21:23.497Z,98376.25
2023-01-03T11:24:06.142Z,98378.91
2023-01-03T11:26:38.705Z,98377.53
2023-01-03T11:29:17.413Z,98391.09
2023-01-03T11:32:02.447Z,98386.22
2023-01-03T11:35:20.213Z,98374.53
2023-01-03T11:37:35.387Z,98372.97
2023-01-03T11:40:20.324Z,98375.03
2023-01-03T11:42:58.991Z,98363.59
2023-01-03T11:45:25.339Z,98352.63
2023-01-03T11:48:02.148Z,98356.16
2023-01-03T11:50:45.167Z,98360.31
2023-01-03T11:53:11.537Z,98358.38
2023-01-03T11:55:38.008Z,98355.06
2023-01-03T11:58:20.924Z,98349.88
2023-01-03T12:00:58.496Z,98350.56
2023-01-03T12:03:43.585Z,98342.34
2023-01-03T12:06:28.916Z,98345.63
2023-01-03T12:09:13.105Z,98348.66
2023-01-03T12:11:45.232Z,98356.84
2023-01-03T12:14:15.793Z,98348.75
2023-01-03T12:16:44.620Z,98354.06
2023-01-03T12:19:31.420Z,98354.50
2023-01-03T12:22:20.896Z,98355.75
2023-01-03T12:24:47.218Z,98360.38
2023-01-03T12:27:21.739Z,98353.28
2023-01-03T12:29:53.955Z,98356.81
2023-01-03T12:32:26.505Z,98352.53
2023-01-03T12:34:59.028Z,98357.75
2023-01-03T12:37:29.579Z,98360.16
2023-01-03T12:40:13.815Z,98353.84
2023-01-03T12:42:43.445Z,98355.72
2023-01-03T12:45:29.618Z,98358.13
2023-01-03T12:48:06.670Z,98359.00
2023-01-03T12:50:36.534Z,98364.44
2023-01-03T12:53:06.905Z,98363.53
2023-01-03T12:55:51.182Z,98351.19
2023-01-03T12:58:39.504Z,98347.91
2023-01-03T13:01:11.697Z,98347.69
2023-01-03T13:03:47.850Z,98352.75
2023-01-03T13:06:17.704Z,98351.72
2023-01-03T13:08:55.354Z,98352.63
2023-01-03T13:11:27.815Z,98358.84
2023-01-03T13:13:55.811Z,98354.59
2023-01-03T13:16:37.726Z,98359.31
2023-01-03T13:19:22.698Z,98355.53
2023-01-03T13:22:09.358Z,98361.38
2023-01-03T13:24:49.418Z,98359.28
2023-01-03T13:27:24.807Z,98362.97
2023-01-03T13:29:51.501Z,98356.13
2023-01-03T13:32:24.169Z,98362.56
2023-01-03T13:34:56.564Z,98361.06
2023-01-03T13:37:26.089Z,98356.72
2023-01-03T13:39:52.487Z,98354.09
2023-01-03T13:42:18.985Z,98346.44
2023-01-03T13:44:45.444Z,98349.97
2023-01-03T13:47:34.597Z,98348.31
2023-01-03T13:50:00.974Z,98350.31
2023-01-03T13:52:38.026Z,98349.59
2023-01-03T13:55:04.663Z,98354.16
2023-01-03T13:57:35.227Z,98355.16
2023-01-03T14:00:03.027Z,98366.50
2023-01-03T14:02:59.117Z,98364.09
2023-01-03T14:05:43.442Z,98364.19
2023-01-03T14:08:21.337Z,98367.50
2023-01-03T14:10:53.686Z,98361.88
2023-01-03T14:13:20.040Z,98362.25
2023-01-03T14:15:47.392Z,98361.81
2023-01-03T14:18:28.494Z,98367.44
2023-01-03T14:20:55.890Z,98373.16
2023-01-03T14:23:58.605Z,98367.53
2023-01-03T14:26:15.636Z,98372.94
2023-01-03T14:28:46.640Z,98375.75
2023-01-03T14:31:24.093Z,98372.31
2023-01-03T14:33:56.095Z,98373.22
2023-01-03T14:36:22.704Z,98377.78
2023-01-03T14:38:50.958Z,98378.78
2023-01-03T14:41:28.513Z,98384.16
2023-01-03T14:43:59.073Z,98386.91
2023-01-03T14:46:27.151Z,98393.97
2023-01-03T14:49:01.102Z,98395.69
2023-01-03T14:51:30.494Z,98387.81
2023-01-03T14:53:57.753Z,98388.66
2023-01-03T14:56:25.443Z,98389.47
2023-01-03T14:58:51.968Z,98394.72
2023-01-03T15:01:18.789Z,98385.19
2023-01-03T15:03:46.751Z,98389.47
2023-01-03T15:06:16.357Z,98391.47
2023-01-03T15:08:43.590Z,98403.69
2023-01-03T15:11:10.998Z,98405.53
2023-01-03T15:13:42.214Z,98407.47
2023-01-03T15:16:19.563Z,98401.59
2023-01-03T15:18:46.954Z,98400.00
2023-01-03T15:21:16.655Z,98405.50
2023-01-03T15:23:46.749Z,98406.72
2023-01-03T15:26:32.017Z,98403.34
2023-01-03T15:29:13.171Z,98412.97
2023-01-03T15:31:47.305Z,98408.69
2023-01-03T15:34:13.753Z,98417.47
2023-01-03T15:36:41.448Z,98414.09
2023-01-03T15:39:08.768Z,98425.50
2023-01-03T15:42:19.541Z,98414.25
2023-01-03T15:44:44.139Z,98415.09
2023-01-03T15:47:13.639Z,98427.41
2023-01-03T15:49:42.007Z,98435.31
2023-01-03T15:52:11.674Z,98433.50
2023-01-03T15:54:38.074Z,98433.53
2023-01-03T15:57:05.849Z,98441.47
2023-01-03T15:59:39.653Z,98439.75
2023-01-03T16:02:16.954Z,98445.94
2023-01-03T16:04:44.503Z,98444.97
2023-01-03T16:07:11.363Z,98444.97
2023-01-03T16:09:37.953Z,98446.84
2023-01-03T16:12:05.122Z,98456.56
2023-01-03T16:14:36.626Z,98461.91
2023-01-03T16:17:04.014Z,98456.78
2023-01-03T16:19:30.800Z,98458.31
2023-01-03T16:22:33.264Z,98452.28
2023-01-03T16:24:49.456Z,98450.72
2023-01-03T16:27:17.873Z,98455.09
2023-01-03T16:29:44.267Z,98449.03
2023-01-03T16:32:17.580Z,98449.16
2023-01-03T16:34:43.991Z,98453.63
2023-01-03T16:37:10.667Z,98453.56
2023-01-03T16:39:41.064Z,98454.44
2023-01-03T16:42:13.439Z,98458.81
2023-01-03T16:44:40.839Z,98457.00
2023-01-03T16:47:10.955Z,98454.44
2023-01-03T16:49:37.367Z,98457.19
2023-01-03T16:52:03.830Z,98463.38
2023-01-03T16:54:30.413Z,98461.63
2023-01-03T16:56:56.977Z,98472.22
2023-01-03T16:59:23.527Z,98463.63
2023-01-03T17:01:50.309Z,98459.22
2023-01-03T17:04:17.176Z,98461.84
2023-01-03T17:06:44.234Z,98463.81
2023-01-03T17:09:19.153Z,98463.13
2023-01-03T17:11:45.698Z,98460.59
2023-01-03T17:14:20.032Z,98464.94
2023-01-03T17:16:47.225Z,98459.94
2023-01-03T17:20:02.932Z,98456.03
2023-01-03T17:22:13.027Z,98475.78
2023-01-03T17:24:39.687Z,98474.47
2023-01-03T17:27:07.049Z,98476.59
2023-01-03T17:29:33.482Z,98478.72
2023-01-03T17:32:00.034Z,98485.13
2023-01-03T17:34:28.063Z,98496.72
2023-01-03T17:36:55.124Z,98490.88
2023-01-03T17:39:22.213Z,98501.41
2023-01-03T17:42:07.304Z,98499.75
2023-01-03T17:44:33.770Z,98504.19
2023-01-03T17:47:36.268Z,98502.31
2023-01-03T17:50:02.716Z,98498.03
2023-01-03T17:52:31.279Z,98503.34
2023-01-03T17:54:57.810Z,98491.44
2023-01-03T17:57:24.192Z,98485.84
2023-01-03T17:59:50.583Z,98483.31
2023-01-03T18:02:20.761Z,98485.94
2023-01-03T18:05:15.956Z,98503.41
2023-01-03T18:07:34.397Z,98507.81
2023-01-03T18:10:01.189Z,98506.09
2023-01-03T18:12:27.610Z,98512.25
2023-01-03T18:14:54.004Z,98504.63
2023-01-03T18:17:30.889Z,98515.09
2023-01-03T18:19:58.129Z,98514.47
2023-01-03T18:22:24.577Z,98500.81
2023-01-03T18:24:54.760Z,98502.75
2023-01-03T18:27:22.642Z,98514.06
2023-01-03T18:29:49.481Z,98515.06
2023-01-03T18:32:15.839Z,98518.63
2023-01-03T18:34:42.239Z,98518.88
2023-01-03T18:37:09.344Z,98512.19
2023-01-03T18:39:35.772Z,98513.09
2023-01-03T18:42:20.847Z,98516.53
2023-01-03T18:44:47.334Z,98512.34
2023-01-03T18:47:14.396Z,98508.91
2023-01-03T18:49:40.937Z,98503.06
2023-01-03T18:52:14.397Z,98508.31
2023-01-03T18:54:40.834Z,98510.19
2023-01-03T18:57:11.412Z,98505.06
2023-01-03T18:59:37.823Z,98519.94
2023-01-03T19:02:12.600Z,98512.13
2023-01-03T19:04:39.601Z,98507.94
2023-01-03T19:07:06.047Z,98508.09
2023-01-03T19:09:32.837Z,98501.19
2023-01-03T19:11:59.252Z,98508.25
2023-01-03T19:14:25.645Z,98497.91
2023-01-03T19:16:52.064Z,98507.59
2023-01-03T19:19:18.479Z,98507.78
2023-01-03T19:21:46.155Z,98516.53
2023-01-03T19:24:34.576Z,98518.91
2023-01-03T19:27:06.905Z,98524.06
2023-01-03T19:29:37.080Z,98518.84
2023-01-03T19:32:05.592Z,98520.59
2023-01-03T19:34:32.031Z,98520.69
2023-01-03T19:36:58.757Z,98512.09
2023-01-03T19:39:27.273Z,98513.94
2023-01-03T19:42:14.906Z,98518.41
2023-01-03T19:44:41.925Z,98521.06
2023-01-03T19:47:12.714Z,98519.09
2023-01-03T19:49:39.127Z,98504.16
2023-01-03T19:52:05.524Z,98510.97
2023-01-03T19:54:31.943Z,98507.59
2023-01-03T19:56:59.519Z,98504.91
2023-01-03T19:59:27.885Z,98511.03
2023-01-03T20:02:23.417Z,98511.94
2023-01-03T20:04:41.166Z,98510.91
2023-01-03T20:07:14.059Z,98507.50
2023-01-03T20:09:40.551Z,98504.09
2023-01-03T20:12:12.291Z,98511.03
2023-01-03T20:14:41.351Z,98503.22
2023-01-03T20:17:19.577Z,98492.97
2023-01-03T20:19:46.038Z,98503.34
2023-01-03T20:22:37.284Z,98504.41
2023-01-03T20:24:58.903Z,98508.19
2023-01-03T20:27:25.297Z,98510.97
2023-01-03T20:29:51.750Z,98508.28
2023-01-03T20:32:18.200Z,98512.78
2023-01-03T20:34:44.702Z,98511.09
2023-01-03T20:37:17.524Z,98504.94
2023-01-03T20:39:44.199Z,98504.94
2023-01-03T20:42:24.741Z,98502.41
2023-01-03T20:44:51.230Z,98508.56
2023-01-03T20:47:22.204Z,98509.44
2023-01-03T20:49:48.901Z,98518.94
2023-01-03T20:52:16.312Z,98515.50
2023-01-03T20:54:42.760Z,98523.31
2023-01-03T20:57:15.870Z,98522.56
2023-01-03T20:59:42.544Z,98514.03
2023-01-03T21:02:10.514Z,98508.88
2023-01-03T21:04:37.779Z,98514.06
2023-01-03T21:07:11.162Z,98517.44
2023-01-03T21:09:38.161Z,98522.66
2023-01-03T21:12:04.741Z,98526.84
2023-01-03T21:14:31.136Z,98524.13
2023-01-03T21:16:57.558Z,98518.91
2023-01-03T21:19:24.366Z,98525.00
2023-01-03T21:21:52.157Z,98526.72
2023-01-03T21:24:20.713Z,98522.28
2023-01-03T21:26:47.203Z,98522.22
2023-01-03T21:29:13.590Z,98522.09
2023-01-03T21:31:42.152Z,98519.44
2023-01-03T21:34:15.539Z,98524.56
2023-01-03T21:36:41.942Z,98524.63
2023-01-03T21:39:09.665Z,98514.31
2023-01-03T21:41:56.420Z,98512.63
2023-01-03T21:44:22.818Z,98511.75
2023-01-03T21:46:49.186Z,98512.63
2023-01-03T21:49:15.606Z,98507.41
2023-01-03T21:51:41.977Z,98503.97
2023-01-03T21:54:09.359Z,98502.28
2023-01-03T21:56:45.087Z,98513.56
2023-01-03T21:59:13.554Z,98512.75
2023-01-03T22:02:00.019Z,98512.00
2023-01-03T22:04:26.592Z,98503.28
2023-01-03T22:07:00.330Z,98507.69
2023-01-03T22:09:46.412Z,98500.66
2023-01-03T22:12:15.312Z,98502.53
2023-01-03T22:14:42.412Z,98501.63
2023-01-03T22:17:08.871Z,98493.97
2023-01-03T22:19:35.367Z,98497.50
2023-01-03T22:22:01.775Z,98501.00
2023-01-03T22:24:28.266Z,98496.88
2023-01-03T22:26:54.633Z,98503.88
2023-01-03T22:29:21.056Z,98504.81
2023-01-03T22:31:47.490Z,98500.59
2023-01-03T22:34:13.901Z,98505.03
2023-01-03T22:36:40.277Z,98507.59
2023-01-03T22:39:06.730Z,98504.06
2023-01-03T22:41:33.123Z,98508.41
2023-01-03T22:43:59.521Z,98510.25
2023-01-03T22:46:26.150Z,98506.78
2023-01-03T22:48:53.025Z,98498.13
2023-01-03T22:51:19.468Z,98500.81
2023-01-03T22:53:48.949Z,98503.28
2023-01-03T22:56:16.615Z,98501.59
2023-01-03T22:58:43.731Z,98504.09
2023-01-03T23:01:10.245Z,98498.06
2023-01-03T23:03:36.914Z,98501.50
2023-01-03T23:06:07.184Z,98492.00
2023-01-03T23:08:34.171Z,98490.28
2023-01-03T23:11:38.609Z,98485.94
2023-01-03T23:14:09.942Z,98486.72
2023-01-03T23:16:36.424Z,98484.88
2023-01-03T23:19:03.155Z,98478.78
2023-01-03T23:21:29.607Z,98478.69
2023-01-03T23:23:56.029Z,98472.72
2023-01-03T23:26:22.375Z,98467.56
2023-01-03T23:28:48.843Z,98469.25
2023-01-03T23:31:15.424Z,98479.59
2023-01-03T23:33:41.844Z,98476.91
2023-01-03T23:36:09.848Z,98487.31
2023-01-03T23:38:36.304Z,98484.72
2023-01-03T23:41:06.641Z,98488.97
2023-01-03T23:43:33.288Z,98487.16
2023-01-03T23:45:59.725Z,98487.09
2023-01-03T23:48:26.530Z,98490.50
2023-01-03T23:50:52.991Z,98480.94
2023-01-03T23:53:19.731Z,98481.72
2023-01-03T23:55:46.173Z,98482.53
2023-01-03T23:58:12.591Z,98476.50
